sensor_id;sensor_type;location;lat;lon;timestamp;pressure;altitude;pressure_sealevel;temperature;humidity
23677;BME280;31493;49.058;12.190;2024-02-26T00:01:50;94521.09;;;3.97;100.00
23677;BME280;31493;49.058;12.190;2024-02-26T00:04:18;94532.41;;;3.94;100.00
23677;BME280;31493;49.058;12.190;2024-02-26T00:06:45;94530.66;;;3.95;100.00
23677;BME280;31493;49.058;12.190;2024-02-26T00:09:12;94529.09;;;4.05;100.00
23677;BME280;31493;49.058;12.190;2024-02-26T00:11:41;94527.34;;;4.05;100.00
23677;BME280;31493;49.058;12.190;2024-02-26T00:14:08;94523.53;;;4.11;100.00
23677;BME280;31493;49.058;12.190;2024-02-26T00:16:35;94526.16;;;3.98;100.00
23677;BME280;31493;49.058;12.190;2024-02-26T00:19:02;94520.72;;;3.90;100.00
23677;BME280;31493;49.058;12.190;2024-02-26T00:21:29;94519.81;;;3.91;100.00
23677;BME280;31493;49.058;12.190;2024-02-26T00:23:56;94516.22;;;3.94;100.00
23677;BME280;31493;49.058;12.190;2024-02-26T00:26:24;94520.16;;;4.10;100.00
23677;BME280;31493;49.058;12.190;2024-02-26T00:28:52;94512.28;;;4.01;100.00
23677;BME280;31493;49.058;12.190;2024-02-26T00:31:20;94513.53;;;4.19;100.00
23677;BME280;31493;49.058;12.190;2024-02-26T00:33:47;94508.34;;;4.08;100.00
23677;BME280;31493;49.058;12.190;2024-02-26T00:36:14;94501.69;;;4.05;100.00
23677;BME280;31493;49.058;12.190;2024-02-26T00:38:41;94503.59;;;4.15;100.00
23677;BME280;31493;49.058;12.190;2024-02-26T00:41:10;94506.06;;;4.16;100.00
23677;BME280;31493;49.058;12.190;2024-02-26T00:43:37;94517.28;;;4.02;100.00
23677;BME280;31493;49.058;12.190;2024-02-26T00:46:07;94519.34;;;4.10;100.00
23677;BME280;31493;49.058;12.190;2024-02-26T00:48:35;94503.44;;;4.05;100.00
23677;BME280;31493;49.058;12.190;2024-02-26T00:51:03;94507.72;;;4.17;100.00
23677;BME280;31493;49.058;12.190;2024-02-26T00:53:31;94511.28;;;4.15;100.00
23677;BME280;31493;49.058;12.190;2024-02-26T00:55:58;94505.41;;;4.01;100.00
23677;BME280;31493;49.058;12.190;2024-02-26T00:58:25;94506.44;;;3.99;100.00
23677;BME280;31493;49.058;12.190;2024-02-26T01:00:52;94504.59;;;4.01;100.00
23677;BME280;31493;49.058;12.190;2024-02-26T01:03:21;94502.78;;;4.14;100.00
23677;BME280;31493;49.058;12.190;2024-02-26T01:05:48;94497.16;;;4.09;100.00
23677;BME280;31493;49.058;12.190;2024-02-26T01:08:15;94497.72;;;4.01;100.00
23677;BME280;31493;49.058;12.190;2024-02-26T01:10:42;94498.63;;;4.00;100.00
23677;BME280;31493;49.058;12.190;2024-02-26T01:13:09;94495.03;;;4.03;100.00
23677;BME280;31493;49.058;12.190;2024-02-26T01:15:37;94494.31;;;4.01;100.00
23677;BME280;31493;49.058;12.190;2024-02-26T01:18:04;94496.34;;;4.08;100.00
23677;BME280;31493;49.058;12.190;2024-02-26T01:20:32;94496.13;;;4.11;100.00
23677;BME280;31493;49.058;12.190;2024-02-26T01:23:00;94490.34;;;3.97;100.00
23677;BME280;31493;49.058;12.190;2024-02-26T01:25:27;94488.06;;;4.05;100.00
23677;BME280;31493;49.058;12.190;2024-02-26T01:27:54;94500.72;;;3.95;100.00
23677;BME280;31493;49.058;12.190;2024-02-26T01:30:21;94493.63;;;3.99;100.00
23677;BME280;31493;49.058;12.190;2024-02-26T01:32:48;94491.06;;;3.99;100.00
23677;BME280;31493;49.058;12.190;2024-02-26T01:35:15;94487.75;;;4.09;100.00
23677;BME280;31493;49.058;12.190;2024-02-26T01:37:44;94494.56;;;3.98;100.00
23677;BME280;31493;49.058;12.190;2024-02-26T01:40:12;94497.16;;;4.09;100.00
23677;BME280;31493;49.058;12.190;2024-02-26T01:42:43;94492.16;;;4.07;100.00
23677;BME280;31493;49.058;12.190;2024-02-26T01:45:14;94498.09;;;4.08;100.00
23677;BME280;31493;49.058;12.190;2024-02-26T01:47:49;94499.19;;;4.17;100.00
23677;BME280;31493;49.058;12.190;2024-02-26T01:50:17;94498.09;;;4.08;100.00
23677;BME280;31493;49.058;12.190;2024-02-26T01:52:46;94501.47;;;4.08;100.00
23677;BME280;31493;49.058;12.190;2024-02-26T01:55:14;94504.81;;;3.98;100.00
23677;BME280;31493;49.058;12.190;2024-02-26T01:57:42;94512.16;;;4.02;100.00
23677;BME280;31493;49.058;12.190;2024-02-26T02:00:11;94511.69;;;3.97;100.00
23677;BME280;31493;49.058;12.190;2024-02-26T02:02:39;94504.63;;;3.88;100.00
23677;BME280;31493;49.058;12.190;2024-02-26T02:05:08;94502.72;;;3.79;100.00
23677;BME280;31493;49.058;12.190;2024-02-26T02:07:36;94499.97;;;3.69;100.00
23677;BME280;31493;49.058;12.190;2024-02-26T02:10:05;94505.41;;;3.65;100.00
23677;BME280;31493;49.058;12.190;2024-02-26T02:12:33;94507.47;;;3.59;100.00
23677;BME280;31493;49.058;12.190;2024-02-26T02:15:02;94512.59;;;3.59;100.00
23677;BME280;31493;49.058;12.190;2024-02-26T02:17:30;94507.31;;;3.50;100.00
23677;BME280;31493;49.058;12.190;2024-02-26T02:19:58;94496.25;;;3.49;100.00
23677;BME280;31493;49.058;12.190;2024-02-26T02:22:27;94503.59;;;3.41;100.00
23677;BME280;31493;49.058;12.190;2024-02-26T02:24:54;94489.50;;;3.10;100.00
23677;BME280;31493;49.058;12.190;2024-02-26T02:27:21;94505.81;;;2.84;100.00
23677;BME280;31493;49.058;12.190;2024-02-26T02:29:48;94502.31;;;2.72;100.00
23677;BME280;31493;49.058;12.190;2024-02-26T02:32:16;94496.09;;;2.36;100.00
23677;BME280;31493;49.058;12.190;2024-02-26T02:34:44;94497.81;;;2.23;100.00
23677;BME280;31493;49.058;12.190;2024-02-26T02:37:12;94495.59;;;2.04;100.00
23677;BME280;31493;49.058;12.190;2024-02-26T02:39:40;94489.00;;;1.87;100.00
23677;BME280;31493;49.058;12.190;2024-02-26T02:42:09;94493.16;;;2.03;100.00
23677;BME280;31493;49.058;12.190;2024-02-26T02:44:36;94497.03;;;1.95;100.00
23677;BME280;31493;49.058;12.190;2024-02-26T02:47:03;94491.97;;;1.94;100.00
23677;BME280;31493;49.058;12.190;2024-02-26T02:49:30;94474.28;;;2.18;100.00
23677;BME280;31493;49.058;12.190;2024-02-26T02:51:57;94479.50;;;2.29;100.00
23677;BME280;31493;49.058;12.190;2024-02-26T02:54:25;94483.19;;;2.25;100.00
23677;BME280;31493;49.058;12.190;2024-02-26T02:56:53;94478.66;;;2.16;100.00
23677;BME280;31493;49.058;12.190;2024-02-26T02:59:20;94482.56;;;2.21;100.00
23677;BME280;31493;49.058;12.190;2024-02-26T03:01:47;94476.84;;;2.31;100.00
23677;BME280;31493;49.058;12.190;2024-02-26T03:04:15;94473.00;;;2.38;100.00
23677;BME280;31493;49.058;12.190;2024-02-26T03:06:42;94472.25;;;2.23;100.00
23677;BME280;31493;49.058;12.190;2024-02-26T03:09:09;94478.34;;;2.08;100.00
23677;BME280;31493;49.058;12.190;2024-02-26T03:11:36;94474.06;;;2.08;100.00
23677;BME280;31493;49.058;12.190;2024-02-26T03:14:06;94473.28;;;1.93;100.00
23677;BME280;31493;49.058;12.190;2024-02-26T03:16:33;94485.00;;;1.83;100.00
23677;BME280;31493;49.058;12.190;2024-02-26T03:19:00;94486.22;;;1.78;100.00
23677;BME280;31493;49.058;12.190;2024-02-26T03:21:28;94475.56;;;1.71;100.00
23677;BME280;31493;49.058;12.190;2024-02-26T03:23:56;94478.53;;;1.78;100.00
23677;BME280;31493;49.058;12.190;2024-02-26T03:26:23;94486.25;;;1.90;100.00
23677;BME280;31493;49.058;12.190;2024-02-26T03:28:50;94479.69;;;2.13;100.00
23677;BME280;31493;49.058;12.190;2024-02-26T03:31:18;94489.00;;;2.14;100.00
23677;BME280;31493;49.058;12.190;2024-02-26T03:33:47;94487.31;;;2.01;100.00
23677;BME280;31493;49.058;12.190;2024-02-26T03:36:14;94478.59;;;1.90;100.00
23677;BME280;31493;49.058;12.190;2024-02-26T03:38:42;94490.78;;;2.00;100.00
23677;BME280;31493;49.058;12.190;2024-02-26T03:41:09;94491.81;;;1.97;100.00
23677;BME280;31493;49.058;12.190;2024-02-26T03:43:36;94488.31;;;1.98;100.00
23677;BME280;31493;49.058;12.190;2024-02-26T03:46:04;94497.25;;;2.05;100.00
23677;BME280;31493;49.058;12.190;2024-02-26T03:48:35;94479.25;;;1.80;100.00
23677;BME280;31493;49.058;12.190;2024-02-26T03:51:02;94476.53;;;1.83;100.00
23677;BME280;31493;49.058;12.190;2024-02-26T03:53:30;94475.34;;;1.74;100.00
23677;BME280;31493;49.058;12.190;2024-02-26T03:55:57;94475.94;;;1.92;100.00
23677;BME280;31493;49.058;12.190;2024-02-26T03:58:24;94475.06;;;1.79;100.00
23677;BME280;31493;49.058;12.190;2024-02-26T04:00:51;94470.13;;;1.76;100.00
23677;BME280;31493;49.058;12.190;2024-02-26T04:03:18;94463.94;;;1.80;100.00
23677;BME280;31493;49.058;12.190;2024-02-26T04:05:47;94465.16;;;1.87;100.00
23677;BME280;31493;49.058;12.190;2024-02-26T04:08:14;94473.22;;;1.81;100.00
23677;BME280;31493;49.058;12.190;2024-02-26T04:10:41;94472.41;;;1.80;100.00
23677;BME280;31493;49.058;12.190;2024-02-26T04:13:08;94460.00;;;1.74;100.00
23677;BME280;31493;49.058;12.190;2024-02-26T04:15:36;94460.44;;;1.54;100.00
23677;BME280;31493;49.058;12.190;2024-02-26T04:18:03;94472.34;;;1.26;100.00
23677;BME280;31493;49.058;12.190;2024-02-26T04:20:30;94463.97;;;1.10;100.00
23677;BME280;31493;49.058;12.190;2024-02-26T04:22:59;94453.56;;;1.13;100.00
23677;BME280;31493;49.058;12.190;2024-02-26T04:25:26;94471.09;;;1.05;100.00
23677;BME280;31493;49.058;12.190;2024-02-26T04:27:54;94475.38;;;1.19;100.00
23677;BME280;31493;49.058;12.190;2024-02-26T04:30:21;94463.44;;;1.05;100.00
23677;BME280;31493;49.058;12.190;2024-02-26T04:32:49;94465.34;;;1.01;100.00
23677;BME280;31493;49.058;12.190;2024-02-26T04:35:17;94466.44;;;0.97;100.00
23677;BME280;31493;49.058;12.190;2024-02-26T04:37:44;94476.56;;;1.13;100.00
23677;BME280;31493;49.058;12.190;2024-02-26T04:40:13;94488.41;;;1.14;100.00
23677;BME280;31493;49.058;12.190;2024-02-26T04:42:40;94476.31;;;1.59;100.00
23677;BME280;31493;49.058;12.190;2024-02-26T04:45:07;94475.06;;;1.52;100.00
23677;BME280;31493;49.058;12.190;2024-02-26T04:47:35;94483.16;;;1.44;100.00
23677;BME280;31493;49.058;12.190;2024-02-26T04:50:02;94478.28;;;1.12;100.00
23677;BME280;31493;49.058;12.190;2024-02-26T04:52:29;94475.38;;;1.04;100.00
23677;BME280;31493;49.058;12.190;2024-02-26T04:54:57;94472.19;;;1.01;100.00
23677;BME280;31493;49.058;12.190;2024-02-26T04:57:27;94472.44;;;0.96;100.00
23677;BME280;31493;49.058;12.190;2024-02-26T04:59:54;94474.53;;;0.75;100.00
23677;BME280;31493;49.058;12.190;2024-02-26T05:02:21;94485.47;;;0.63;100.00
23677;BME280;31493;49.058;12.190;2024-02-26T05:04:48;94486.19;;;0.65;100.00
23677;BME280;31493;49.058;12.190;2024-02-26T05:07:15;94488.75;;;0.65;100.00
23677;BME280;31493;49.058;12.190;2024-02-26T05:09:43;94479.53;;;0.63;100.00
23677;BME280;31493;49.058;12.190;2024-02-26T05:12:10;94484.53;;;0.50;100.00
23677;BME280;31493;49.058;12.190;2024-02-26T05:14:39;94480.63;;;0.58;100.00
23677;BME280;31493;49.058;12.190;2024-02-26T05:17:06;94487.09;;;0.64;100.00
23677;BME280;31493;49.058;12.190;2024-02-26T05:19:33;94487.56;;;0.56;100.00
23677;BME280;31493;49.058;12.190;2024-02-26T05:22:00;94485.09;;;0.69;100.00
23677;BME280;31493;49.058;12.190;2024-02-26T05:24:27;94490.94;;;0.71;100.00
23677;BME280;31493;49.058;12.190;2024-02-26T05:26:55;94491.59;;;0.75;100.00
23677;BME280;31493;49.058;12.190;2024-02-26T05:29:22;94502.72;;;0.88;100.00
23677;BME280;31493;49.058;12.190;2024-02-26T05:31:50;94505.72;;;1.23;100.00
23677;BME280;31493;49.058;12.190;2024-02-26T05:34:20;94502.91;;;0.99;100.00
23677;BME280;31493;49.058;12.190;2024-02-26T05:36:47;94505.63;;;0.68;100.00
23677;BME280;31493;49.058;12.190;2024-02-26T05:39:15;94509.13;;;0.51;100.00
23677;BME280;31493;49.058;12.190;2024-02-26T05:41:42;94510.13;;;0.48;100.00
23677;BME280;31493;49.058;12.190;2024-02-26T05:44:11;94499.88;;;0.34;100.00
23677;BME280;31493;49.058;12.190;2024-02-26T05:46:38;94510.34;;;0.29;100.00
23677;BME280;31493;49.058;12.190;2024-02-26T05:49:07;94513.31;;;0.22;100.00
23677;BME280;31493;49.058;12.190;2024-02-26T05:51:34;94506.56;;;0.21;100.00
23677;BME280;31493;49.058;12.190;2024-02-26T05:54:01;94510.00;;;0.05;100.00
23677;BME280;31493;49.058;12.190;2024-02-26T05:56:28;94505.47;;;0.11;100.00
23677;BME280;31493;49.058;12.190;2024-02-26T05:58:55;94504.03;;;0.21;100.00
23677;BME280;31493;49.058;12.190;2024-02-26T06:01:23;94515.28;;;0.32;100.00
23677;BME280;31493;49.058;12.190;2024-02-26T06:03:50;94512.16;;;0.27;100.00
23677;BME280;31493;49.058;12.190;2024-02-26T06:06:19;94514.19;;;0.37;100.00
23677;BME280;31493;49.058;12.190;2024-02-26T06:08:48;94525.94;;;0.39;100.00
23677;BME280;31493;49.058;12.190;2024-02-26T06:11:16;94519.88;;;0.42;100.00
23677;BME280;31493;49.058;12.190;2024-02-26T06:13:43;94513.38;;;0.36;100.00
23677;BME280;31493;49.058;12.190;2024-02-26T06:16:10;94514.00;;;0.10;100.00
23677;BME280;31493;49.058;12.190;2024-02-26T06:18:37;94512.84;;;0.15;100.00
23677;BME280;31493;49.058;12.190;2024-02-26T06:21:04;94512.94;;;0.14;100.00
23677;BME280;31493;49.058;12.190;2024-02-26T06:23:37;94521.84;;;0.06;100.00
23677;BME280;31493;49.058;12.190;2024-02-26T06:26:04;94515.00;;;0.07;100.00
23677;BME280;31493;49.058;12.190;2024-02-26T06:28:31;94525.34;;;0.04;100.00
23677;BME280;31493;49.058;12.190;2024-02-26T06:31:01;94518.03;;;-0.02;100.00
23677;BME280;31493;49.058;12.190;2024-02-26T06:33:28;94529.97;;;-0.03;100.00
23677;BME280;31493;49.058;12.190;2024-02-26T06:35:55;94526.25;;;0.03;100.00
23677;BME280;31493;49.058;12.190;2024-02-26T06:38:23;94534.56;;;0.06;100.00
23677;BME280;31493;49.058;12.190;2024-02-26T06:40:51;94530.28;;;0.07;100.00
23677;BME280;31493;49.058;12.190;2024-02-26T06:43:18;94532.66;;;0.10;100.00
23677;BME280;31493;49.058;12.190;2024-02-26T06:45:45;94534.47;;;0.08;100.00
23677;BME280;31493;49.058;12.190;2024-02-26T06:48:13;94528.41;;;0.11;100.00
23677;BME280;31493;49.058;12.190;2024-02-26T06:50:40;94533.50;;;0.11;100.00
23677;BME280;31493;49.058;12.190;2024-02-26T06:53:07;94554.44;;;0.16;100.00
23677;BME280;31493;49.058;12.190;2024-02-26T06:55:34;94549.81;;;0.22;100.00
23677;BME280;31493;49.058;12.190;2024-02-26T06:58:04;94551.97;;;0.14;100.00
23677;BME280;31493;49.058;12.190;2024-02-26T07:00:31;94548.19;;;0.21;100.00
23677;BME280;31493;49.058;12.190;2024-02-26T07:02:59;94547.06;;;0.11;100.00
23677;BME280;31493;49.058;12.190;2024-02-26T07:05:26;94548.97;;;0.07;100.00
23677;BME280;31493;49.058;12.190;2024-02-26T07:07:53;94561.22;;;0.17;100.00
23677;BME280;31493;49.058;12.190;2024-02-26T07:10:21;94558.81;;;0.14;100.00
23677;BME280;31493;49.058;12.190;2024-02-26T07:12:48;94557.00;;;0.16;100.00
23677;BME280;31493;49.058;12.190;2024-02-26T07:15:16;94574.78;;;0.47;100.00
23677;BME280;31493;49.058;12.190;2024-02-26T07:17:44;94576.91;;;0.85;100.00
23677;BME280;31493;49.058;12.190;2024-02-26T07:20:13;94581.47;;;1.08;100.00
23677;BME280;31493;49.058;12.190;2024-02-26T07:22:40;94579.09;;;0.91;100.00
23677;BME280;31493;49.058;12.190;2024-02-26T07:25:08;94591.91;;;0.75;100.00
23677;BME280;31493;49.058;12.190;2024-02-26T07:27:39;94580.66;;;1.08;100.00
23677;BME280;31493;49.058;12.190;2024-02-26T07:30:07;94586.47;;;0.81;100.00
23677;BME280;31493;49.058;12.190;2024-02-26T07:32:36;94576.44;;;0.78;100.00
23677;BME280;31493;49.058;12.190;2024-02-26T07:35:04;94576.50;;;0.77;100.00
23677;BME280;31493;49.058;12.190;2024-02-26T07:37:31;94574.97;;;0.88;100.00
23677;BME280;31493;49.058;12.190;2024-02-26T07:39:59;94584.03;;;0.94;100.00
23677;BME280;31493;49.058;12.190;2024-02-26T07:42:26;94571.63;;;1.02;100.00
23677;BME280;31493;49.058;12.190;2024-02-26T07:44:53;94580.66;;;1.08;100.00
23677;BME280;31493;49.058;12.190;2024-02-26T07:47:20;94585.72;;;1.24;100.00
23677;BME280;31493;49.058;12.190;2024-02-26T07:49:49;94590.34;;;1.31;100.00
23677;BME280;31493;49.058;12.190;2024-02-26T07:52:16;94592.63;;;1.50;100.00
23677;BME280;31493;49.058;12.190;2024-02-26T07:54:43;94587.16;;;1.56;100.00
23677;BME280;31493;49.058;12.190;2024-02-26T07:57:10;94598.84;;;1.60;100.00
23677;BME280;31493;49.058;12.190;2024-02-26T07:59:41;94591.19;;;1.60;100.00
23677;BME280;31493;49.058;12.190;2024-02-26T08:02:08;94595.09;;;1.80;100.00
23677;BME280;31493;49.058;12.190;2024-02-26T08:04:35;94604.38;;;1.81;100.00
23677;BME280;31493;49.058;12.190;2024-02-26T08:07:04;94599.09;;;1.84;100.00
23677;BME280;31493;49.058;12.190;2024-02-26T08:09:31;94609.06;;;1.89;100.00
23677;BME280;31493;49.058;12.190;2024-02-26T08:11:59;94614.41;;;1.99;100.00
23677;BME280;31493;49.058;12.190;2024-02-26T08:14:26;94596.53;;;1.99;100.00
23677;BME280;31493;49.058;12.190;2024-02-26T08:16:53;94594.97;;;1.96;100.00
23677;BME280;31493;49.058;12.190;2024-02-26T08:19:20;94599.72;;;2.02;100.00
23677;BME280;31493;49.058;12.190;2024-02-26T08:21:48;94605.94;;;2.25;100.00
23677;BME280;31493;49.058;12.190;2024-02-26T08:24:16;94602.88;;;2.47;100.00
23677;BME280;31493;49.058;12.190;2024-02-26T08:26:43;94604.78;;;2.43;100.00
23677;BME280;31493;49.058;12.190;2024-02-26T08:29:11;94607.94;;;2.61;100.00
23677;BME280;31493;49.058;12.190;2024-02-26T08:31:38;94609.03;;;2.84;100.00
23677;BME280;31493;49.058;12.190;2024-02-26T08:34:05;94620.50;;;2.91;100.00
23677;BME280;31493;49.058;12.190;2024-02-26T08:36:33;94626.13;;;2.84;100.00
23677;BME280;31493;49.058;12.190;2024-02-26T08:39:01;94606.88;;;2.91;100.00
23677;BME280;31493;49.058;12.190;2024-02-26T08:41:30;94601.34;;;2.97;100.00
23677;BME280;31493;49.058;12.190;2024-02-26T08:43:57;94596.47;;;3.07;100.00
23677;BME280;31493;49.058;12.190;2024-02-26T08:46:24;94600.25;;;3.14;100.00
23677;BME280;31493;49.058;12.190;2024-02-26T08:48:52;94607.72;;;3.17;100.00
23677;BME280;31493;49.058;12.190;2024-02-26T08:51:19;94610.94;;;3.33;100.00
23677;BME280;31493;49.058;12.190;2024-02-26T08:53:46;94595.22;;;3.76;100.00
23677;BME280;31493;49.058;12.190;2024-02-26T08:56:14;94608.22;;;3.98;100.00
23677;BME280;31493;49.058;12.190;2024-02-26T08:58:44;94608.75;;;4.27;100.00
23677;BME280;31493;49.058;12.190;2024-02-26T09:01:14;94613.13;;;4.38;100.00
23677;BME280;31493;49.058;12.190;2024-02-26T09:03:41;94620.81;;;4.38;100.00
23677;BME280;31493;49.058;12.190;2024-02-26T09:06:09;94616.81;;;4.47;100.00
23677;BME280;31493;49.058;12.190;2024-02-26T09:08:37;94602.66;;;4.65;100.00
23677;BME280;31493;49.058;12.190;2024-02-26T09:11:04;94605.88;;;4.80;100.00
23677;BME280;31493;49.058;12.190;2024-02-26T09:13:32;94608.94;;;4.85;100.00
23677;BME280;31493;49.058;12.190;2024-02-26T09:16:01;94601.91;;;4.87;100.00
23677;BME280;31493;49.058;12.190;2024-02-26T09:18:28;94621.81;;;5.31;100.00
23677;BME280;31493;49.058;12.190;2024-02-26T09:20:55;94610.06;;;5.73;100.00
23677;BME280;31493;49.058;12.190;2024-02-26T09:23:22;94608.19;;;5.98;100.00
23677;BME280;31493;49.058;12.190;2024-02-26T09:25:50;94606.41;;;6.32;94.28
23677;BME280;31493;49.058;12.190;2024-02-26T09:28:17;94615.91;;;6.75;87.90
23677;BME280;31493;49.058;12.190;2024-02-26T09:30:44;94605.63;;;6.96;81.06
23677;BME280;31493;49.058;12.190;2024-02-26T09:33:13;94606.16;;;7.31;78.58
23677;BME280;31493;49.058;12.190;2024-02-26T09:35:40;94609.25;;;7.46;75.86
23677;BME280;31493;49.058;12.190;2024-02-26T09:38:08;94606.53;;;7.06;77.43
23677;BME280;31493;49.058;12.190;2024-02-26T09:40:35;94616.00;;;7.38;75.03
23677;BME280;31493;49.058;12.190;2024-02-26T09:43:04;94597.19;;;7.47;74.56
23677;BME280;31493;49.058;12.190;2024-02-26T09:45:32;94609.72;;;7.51;72.49
23677;BME280;31493;49.058;12.190;2024-02-26T09:48:00;94601.50;;;7.25;71.77
23677;BME280;31493;49.058;12.190;2024-02-26T09:50:31;94601.69;;;7.33;72.16
23677;BME280;31493;49.058;12.190;2024-02-26T09:52:59;94617.44;;;7.51;70.70
23677;BME280;31493;49.058;12.190;2024-02-26T09:55:28;94619.81;;;7.85;70.68
23677;BME280;31493;49.058;12.190;2024-02-26T09:57:55;94625.00;;;7.95;69.16
23677;BME280;31493;49.058;12.190;2024-02-26T10:00:26;94609.13;;;7.69;67.19
23677;BME280;31493;49.058;12.190;2024-02-26T10:02:57;94622.97;;;7.47;68.93
23677;BME280;31493;49.058;12.190;2024-02-26T10:05:26;94621.50;;;7.33;68.72
23677;BME280;31493;49.058;12.190;2024-02-26T10:07:55;94616.13;;;7.57;68.69
23677;BME280;31493;49.058;12.190;2024-02-26T10:10:23;94618.53;;;7.49;68.86
23677;BME280;31493;49.058;12.190;2024-02-26T10:12:51;94624.19;;;7.43;68.58
23677;BME280;31493;49.058;12.190;2024-02-26T10:15:18;94611.28;;;7.43;69.50
23677;BME280;31493;49.058;12.190;2024-02-26T10:17:45;94613.56;;;7.36;69.20
23677;BME280;31493;49.058;12.190;2024-02-26T10:20:14;94624.53;;;7.80;69.03
23677;BME280;31493;49.058;12.190;2024-02-26T10:22:43;94620.41;;;7.68;67.30
23677;BME280;31493;49.058;12.190;2024-02-26T10:25:12;94620.94;;;7.92;68.01
23677;BME280;31493;49.058;12.190;2024-02-26T10:27:40;94621.81;;;8.12;66.87
23677;BME280;31493;49.058;12.190;2024-02-26T10:30:16;94622.63;;;8.12;68.08
23677;BME280;31493;49.058;12.190;2024-02-26T10:32:44;94626.97;;;8.02;66.72
23677;BME280;31493;49.058;12.190;2024-02-26T10:35:11;94639.22;;;8.10;65.52
23677;BME280;31493;49.058;12.190;2024-02-26T10:37:39;94627.41;;;8.17;64.93
23677;BME280;31493;49.058;12.190;2024-02-26T10:40:10;94623.53;;;8.02;66.13
23677;BME280;31493;49.058;12.190;2024-02-26T10:42:39;94628.59;;;8.03;65.87
23677;BME280;31493;49.058;12.190;2024-02-26T10:45:06;94621.97;;;8.20;65.04
23677;BME280;31493;49.058;12.190;2024-02-26T10:47:35;94628.56;;;8.43;64.04
23677;BME280;31493;49.058;12.190;2024-02-26T10:50:03;94617.84;;;8.48;63.13
23677;BME280;31493;49.058;12.190;2024-02-26T10:52:32;94621.03;;;8.21;64.20
23677;BME280;31493;49.058;12.190;2024-02-26T10:55:01;94606.94;;;7.95;64.51
23677;BME280;31493;49.058;12.190;2024-02-26T10:57:32;94615.41;;;8.06;65.23
23677;BME280;31493;49.058;12.190;2024-02-26T11:02:38;94614.47;;;8.57;63.74
23677;BME280;31493;49.058;12.190;2024-02-26T11:05:07;94634.06;;;8.69;62.10
23677;BME280;31493;49.058;12.190;2024-02-26T11:07:35;94620.59;;;8.66;61.88
23677;BME280;31493;49.058;12.190;2024-02-26T11:10:04;94614.53;;;8.96;62.48
23677;BME280;31493;49.058;12.190;2024-02-26T11:12:32;94617.09;;;8.86;61.41
23677;BME280;31493;49.058;12.190;2024-02-26T11:15:01;94621.59;;;9.13;61.46
23677;BME280;31493;49.058;12.190;2024-02-26T11:17:29;94620.66;;;8.95;60.41
23677;BME280;31493;49.058;12.190;2024-02-26T11:19:59;94623.34;;;8.93;61.05
23677;BME280;31493;49.058;12.190;2024-02-26T11:22:28;94628.25;;;8.87;58.62
23677;BME280;31493;49.058;12.190;2024-02-26T11:24:56;94618.97;;;8.65;58.22
23677;BME280;31493;49.058;12.190;2024-02-26T11:27:30;94614.22;;;8.70;58.09
23677;BME280;31493;49.058;12.190;2024-02-26T11:30:00;94619.84;;;8.94;58.51
23677;BME280;31493;49.058;12.190;2024-02-26T11:32:29;94615.56;;;8.55;56.13
23677;BME280;31493;49.058;12.190;2024-02-26T11:34:58;94618.19;;;9.03;56.64
23677;BME280;31493;49.058;12.190;2024-02-26T11:37:26;94605.38;;;9.11;55.30
23677;BME280;31493;49.058;12.190;2024-02-26T11:39:53;94609.06;;;8.99;55.78
23677;BME280;31493;49.058;12.190;2024-02-26T11:42:23;94600.78;;;9.15;55.44
23677;BME280;31493;49.058;12.190;2024-02-26T11:44:50;94608.84;;;9.31;56.42
23677;BME280;31493;49.058;12.190;2024-02-26T11:47:18;94607.56;;;9.06;54.87
23677;BME280;31493;49.058;12.190;2024-02-26T11:49:46;94621.19;;;9.08;54.58
23677;BME280;31493;49.058;12.190;2024-02-26T11:52:15;94619.13;;;8.92;54.47
23677;BME280;31493;49.058;12.190;2024-02-26T11:54:46;94614.66;;;9.04;56.25
23677;BME280;31493;49.058;12.190;2024-02-26T11:57:23;94611.50;;;8.81;54.84
23677;BME280;31493;49.058;12.190;2024-02-26T11:59:51;94601.41;;;8.49;55.06
23677;BME280;31493;49.058;12.190;2024-02-26T12:02:38;94614.22;;;8.60;56.20
23677;BME280;31493;49.058;12.190;2024-02-26T12:05:07;94612.84;;;8.66;54.99
23677;BME280;31493;49.058;12.190;2024-02-26T12:07:41;94618.84;;;8.86;56.46
23677;BME280;31493;49.058;12.190;2024-02-26T12:10:17;94631.53;;;8.99;55.72
23677;BME280;31493;49.058;12.190;2024-02-26T12:12:47;94628.94;;;9.18;55.13
23677;BME280;31493;49.058;12.190;2024-02-26T12:15:16;94623.50;;;8.92;54.84
23677;BME280;31493;49.058;12.190;2024-02-26T12:17:48;94623.09;;;8.96;54.67
23677;BME280;31493;49.058;12.190;2024-02-26T12:20:17;94625.16;;;9.32;55.85
23677;BME280;31493;49.058;12.190;2024-02-26T12:22:46;94627.72;;;8.83;55.16
23677;BME280;31493;49.058;12.190;2024-02-26T12:25:14;94614.38;;;8.98;55.37
23677;BME280;31493;49.058;12.190;2024-02-26T12:27:41;94630.59;;;9.19;55.06
23677;BME280;31493;49.058;12.190;2024-02-26T12:30:10;94625.00;;;9.23;55.62
23677;BME280;31493;49.058;12.190;2024-02-26T12:32:37;94632.34;;;9.18;55.44
23677;BME280;31493;49.058;12.190;2024-02-26T12:35:06;94639.56;;;9.15;66.44
23677;BME280;31493;49.058;12.190;2024-02-26T12:37:33;94652.22;;;9.08;71.74
23677;BME280;31493;49.058;12.190;2024-02-26T12:40:06;94649.28;;;8.63;75.98
23677;BME280;31493;49.058;12.190;2024-02-26T12:42:34;94641.69;;;8.71;78.63
23677;BME280;31493;49.058;12.190;2024-02-26T12:45:06;94641.47;;;9.03;80.73
23677;BME280;31493;49.058;12.190;2024-02-26T12:47:36;94657.09;;;8.82;82.28
23677;BME280;31493;49.058;12.190;2024-02-26T12:50:04;94671.25;;;8.98;82.88
23677;BME280;31493;49.058;12.190;2024-02-26T12:52:32;94661.13;;;8.75;83.19
23677;BME280;31493;49.058;12.190;2024-02-26T12:55:00;94658.31;;;8.78;82.94
23677;BME280;31493;49.058;12.190;2024-02-26T12:57:30;94666.72;;;8.71;84.87
23677;BME280;31493;49.058;12.190;2024-02-26T12:59:59;94664.06;;;8.51;86.70